Mason Valley Wildlife Refuge, Nevada Weather observations

Data are for 10 minute period ending at time listed.
 Day   Time   Solar   Ave.   Ave.  Ave.  Vector  Max.   Baro.   Total    
  of    of     Rad.   Air    Rel.  Wind   Wind   Wind  Press.  Precip.   
Year   Day            Temp.  Hum.  Speed  Dir.   Gust                    
2014   (PST)  Kw/m2    F      %     mph   deg.    mph    mb.     in.     
-------------------------------------------------------------------------
 202    2:50   0.00   55.0    88    2.0   282     2.6   869.9    0.00 
 202    3:00   0.00   54.9    88    1.5   259     2.8   869.9    0.00 
 202    3:10   0.00   56.1    86    3.1   279     4.3   870.0    0.00 
 202    3:20   0.00   56.3    85    2.6   248     3.4   870.0    0.00 
 202    3:30   0.00   54.9    86    1.7    76     2.6   870.1    0.00 
 202    3:40   0.00   54.3    88    1.2   111     4.3   870.2    0.00 
 202    3:50   0.00   54.4    89    0.9    20     2.1   870.2    0.00 
 202    4:00   0.00   54.7    86    2.6   107     4.2   870.1    0.00 
 202    4:10   0.00   52.8    87    2.2   133     3.9   870.2    0.00 
 202    4:20   0.00   53.1    88    1.3   183     2.2   870.3    0.00 
 202    4:30   0.00   53.4    89    2.1   206     2.6   870.3    0.00 
 202    4:40   100.00  99999.0   99999  99999.0   99999   99999.0   99999.0   99999.00 
 202    4:50   0.01   52.6    89    0.1   180     0.9   870.5    0.00 
 202    5:00   0.01   52.3    89    0.0     0     0.0   870.6    0.00 
 202    5:10   0.02   53.0    89    0.6    75     1.5   870.7    0.00 
 202    5:20   0.05   53.8    87    0.9   244     3.9   870.8    0.00 
 202    5:30   0.07   54.7    88    2.5   253     3.0   871.0    0.00 
 202    5:40   0.12   56.6    88    0.7   231     2.3   871.0    0.00 
 202    5:50   0.14   58.6    84    1.6   229     3.1   871.2    0.00 
 202    6:00   0.17   60.2    82    1.2   270     2.4   871.3    0.00 
 202    6:10   0.14   62.5    76    1.1   306     2.3   871.4    0.00 
 202    6:20   0.22   62.5    75    2.3   308     3.7   871.4    0.00 
 202    6:30   0.25   64.0    71    2.8   292     4.3   871.5    0.00 
 202    6:40   0.27   64.8    68    3.0   290     4.8   871.5    0.00 
 202    6:50   0.30   66.0    65    1.8   324     3.3   871.6    0.00 
 202    7:00   0.28   66.8    62    0.8   305     2.6   871.6    0.00 
 202    7:10   0.31   66.3    65    2.2   221     3.7   871.6    0.00 
 202    7:20   0.38   67.2    62    2.1   188     3.5   871.5    0.00 
 202    7:30   0.42   68.0    61    2.0   213     3.2   871.6    0.00 
 202    7:40   0.45   69.1    58    2.2   218     4.4   871.5    0.00 
 202    7:50   0.49   70.7    54    1.5   159     3.3   871.5    0.00 
 202    8:00   0.53   72.3    51    1.4   111     4.4   871.5    0.00 
 202    8:10   0.55   73.5    47    2.4   125     7.6   871.5    0.00 
 202    8:20   0.58   73.0    46    3.7    83     8.6   871.3    0.00 
 202    8:30   0.60   73.0    44    2.7    74     6.6   871.3    0.00 
 202    8:40   0.63   74.2    42    3.3    81     6.1   871.3    0.00 
 202    8:50   0.66   74.2    42    5.2    32     9.1   871.3    0.00 
 202    9:00   0.68   74.2    41    5.1    39    11.4   871.3    0.00 
 202    9:10   0.71   74.3    41    4.9   346     9.0   871.3    0.00 
 202    9:20   0.74   75.2    40    5.2    34     9.9   871.2    0.00 
 202    9:30   0.76   75.3    39    5.3    10    11.3   871.2    0.00 
 202    9:40   0.75   75.7    38    3.7    21     7.9   871.2    0.00 
 202    9:50   0.81   76.3    37    3.7    34     8.8   871.2    0.00 
 202   10:00   0.84   77.0    36    4.6    70    12.0   871.2    0.00 
 202   10:10   0.85   77.5    34    4.4    96    11.2   871.0    0.00 
 202   10:20   0.87   78.1    33    4.4   156     8.5   871.0    0.00 
 202   10:30   0.89   78.9    32    6.5    68    12.0   870.9    0.00 
 202   10:40   0.91   79.2    32    4.7    54    10.1   870.9    0.00 
 202   10:50   0.93   79.3    31    5.3    94    11.6   870.8    0.00 
 202   11:00   0.96   80.3    31    6.7    68    14.8   870.8    0.00 
 202   11:10   0.97   80.5    30    8.0    64    13.8   870.7    0.00 
 202   11:20   0.96   79.8    31    6.7    65    18.9   870.7    0.00 
 202   11:30   0.97   79.6    31    5.0    34    10.6   870.6    0.00 
 202   11:40   0.98   80.3    31    7.4    26    13.8   870.5    0.00 
 202   11:50   1.01   80.5    31    7.9    27    12.4   870.4    0.00 
 202   12:00   1.00   81.2    30    7.8    20    15.3   870.4    0.00 
 202   12:10   0.98   80.7    29    6.0    47    14.8   870.3    0.00 
 202   12:20   0.90   81.6    28    3.9    47     9.6   870.3    0.00 
 202   12:30   0.87   82.2    28    7.9    46    17.5   870.2    0.00 
 202   12:40   1.01   82.2    28    7.2    39    13.8   870.2    0.00 
 202   12:50   0.99   81.9    28    6.0     6    12.6   870.1    0.00 
 202   13:00   0.99   82.9    27    6.4    86    13.2   869.9    0.00 
 202   13:10   1.01   83.3    26    4.7   336    16.0   869.9    0.00 
 202   13:20   0.99   83.6    26    6.3    60    11.5   869.8    0.00 
 202   13:30   0.98   83.4    26    3.3    27     7.4   869.6    0.00 
 202   13:40   0.97   84.1    25    7.1    28    14.1   869.5    0.00 
 202   13:50   0.97   84.1    24    5.4    14    11.5   869.3    0.00 
 202   14:00   0.66   83.9    26    7.6    12    15.9   869.3    0.00 
 202   14:10   0.72   83.8    26    6.7    29    11.2   869.3    0.00 
 202   14:20   0.48   82.6    26    3.1   326     7.2   869.2    0.00 
 202   14:30   0.16   82.3    27    4.0    64    12.9   869.2    0.00 
 202   14:40   0.31   81.7    27    5.8    81    10.8   869.1    0.00 
 202   14:50   0.76   83.0    27    5.1    22     8.6   868.9    0.00 
 202   15:00   0.59   83.7    26    6.7   355    10.4   868.8    0.00 
 202   15:10   0.64   84.2    25    3.2   308     6.9   868.7    0.00 
 202   15:20   0.25   83.8    26    3.4   352     7.2   868.8    0.00 
 202   15:30   0.15   80.9    30    7.2     0    15.5   868.6    0.00 
 202   15:40   0.31   80.8    31    6.0     4    10.4   868.5    0.00 
 202   15:50   0.75   83.0    28    8.5   338    13.9   868.4    0.00 
 202   16:00   0.72   84.6    26    7.2   351    13.2   868.4    0.00 
 202   16:10   0.37   83.7    27    7.4   358    11.8   868.5    0.00 
 202   16:20   0.09   81.0    30    5.6     7    10.9   868.5    0.00 
 202   16:30   0.06   80.2    30    6.4   332    10.9   868.4    0.00 
 202   16:40   0.06   79.8    31    5.9   312    11.8   868.5    0.00 
 202   16:50   0.10   79.6    32    7.4   319    12.6   868.2    0.00 
 202   17:00   0.38   80.2    32    8.8   316    15.5   868.2    0.00 
 202   17:10   0.44   80.9    33    7.9   310    14.8   868.4    0.00 
 202   17:20   0.31   80.4    32    9.2   324    14.7   868.5    0.00 
 202   17:30   0.11   79.3    32    8.0   325    12.3   868.5    0.00 
 202   17:40   0.06   78.7    32    6.2   330    10.4   868.5    0.00 
 202   17:50   0.09   78.6    33    6.3   331    12.3   868.6    0.00 
 202   18:00   0.09   78.7    33    9.1   338    13.5   868.6    0.00 
 202   18:10   0.04   77.6    36    8.0   344    12.2   868.7    0.00 
 202   18:20   0.05   77.4    37    8.9   339    13.4   868.7    0.00 
 202   18:30   0.08   76.7    40    9.3   331    14.2   868.7    0.00 
 202   18:40   0.05   76.1    41    8.4   335    13.5   868.9    0.00 
 202   18:50   0.03   75.7    42    8.0   338    14.0   869.0    0.00 
 202   19:00   0.01   74.9    44    7.3   338    12.1   869.0    0.00 
 202   19:10   0.01   74.1    48    5.3   337     8.4   869.1    0.00 
 202   19:20   0.01   73.6    50    5.1   332     9.3   869.0    0.00 
 202   19:30   0.00   72.8    52    4.0   331     7.3   869.0    0.00 
 202   19:40   0.00   72.4    54    4.1   323     7.5   869.2    0.00 
 202   19:50   0.00   72.2    53    3.8   331     7.5   869.5    0.00 
 202   20:00   0.00   71.6    52    3.5   350     5.0   869.8    0.00 
 202   20:10   0.00   70.4    53    3.8   348     5.9   869.9    0.00 
 202   20:20   0.00   70.8    52    3.0   348     4.2   870.2    0.00 
 202   20:30   0.00   69.0    56    2.4   358     3.1   870.3    0.00 
 202   20:40   0.00   67.7    59    2.5    31     3.5   870.5    0.00 
 202   20:50   0.00   67.0    58    2.7    41     3.5   870.7    0.00 
 202   21:00   0.00   67.3    61    2.3     8     3.3   870.9    0.00 
 202   21:10   0.00   67.9    58    2.9   314     4.2   871.0    0.00 
 202   21:20   0.00   68.8    56    2.5   321     5.2   871.0    0.00 
 202   21:30   0.00   69.6    54    4.1   350     7.2   871.1    0.00 
 202   21:40   0.00   68.5    56    5.1   347     7.7   870.9    0.00 
 202   21:50   0.00   70.1    52    5.3   342     9.1   871.0    0.00 
 202   22:00   0.00   68.3    56    3.8   350     5.2   871.0    0.00 
 202   22:10   0.00   67.9    57    3.7   343     4.7   871.1    0.00 
 202   22:20   0.00   69.2    53    4.2   337     6.8   871.2    0.00 
 202   22:30   0.00   69.2    52    3.1   330     5.3   871.3    0.00 
 202   22:40   0.00   70.6    48    3.8   316     6.8   871.3    0.00 
 202   22:50   0.00   68.3    55    3.3   283     5.1   871.3    0.00 
 202   23:00   0.00   68.1    56    2.7   287     3.7   871.4    0.00 
 202   23:10   0.00   67.9    56    2.4   298     4.0   871.5    0.00 
 202   23:20   0.00   69.0    54    2.3   295     3.9   871.5    0.00 
 202   23:30   0.00   67.6    59    2.1   144     3.7   871.6    0.00 
 202   23:40   0.00   66.2    66    3.1   189     5.4   871.6    0.00 
 202   23:50   0.00   64.5    69    3.2   224     5.2   871.5    0.00 
 203    0:00   0.00   64.3    69    3.0   238     5.6   871.5    0.00 
 203    0:10   0.00   64.8    65    3.1   149     6.0   871.5    0.00 
 203    0:20   0.00   65.0    63    2.0   158     5.6   871.7    0.00 
 203    0:30   0.00   65.1    62    1.9   323     4.5   871.7    0.00 
 203    0:40   0.00   66.3    58    4.5    26     6.8   871.8    0.00 
 203    0:50   0.00   67.1    56    4.2    14     7.4   871.7    0.00 
 203    1:00   0.00   67.4    55    2.3   333     3.7   872.0    0.00 
 203    1:10   0.00   67.4    54    2.4   337     4.6   871.9    0.00 
 203    1:20   0.00   66.5    58    1.6   244     4.7   872.0    0.00 
 203    1:30   0.00   61.9    71    3.7   196     5.4   872.1    0.00 
 203    1:40   0.00   61.0    73    2.7   230     4.5   872.1    0.00 
 203    1:50   0.00   60.4    76    3.0   207     4.4   872.1    0.00 
 203    2:00   0.00   60.2    76    1.7   228     3.9   872.1    0.00 
 203    2:10   0.00   60.9    74    1.4   248     3.3   872.1    0.00 
 203    2:20   0.00   61.1    72    1.4   288     5.5   872.1    0.00 
 203    2:30   0.00   62.7    69    3.6   276     5.5   872.1    0.00 
 203    2:40   0.00   61.8    72    3.0   219     5.3   872.2    0.00 

Return to Mason Valley Wildlife Refuge graphs page.


Western Regional Climate Center,wrcc@dri.edu